Nearby METAR Reports

 

KPAE - Everett, Washington, USA
Distance from station: NW 15mi, 25km
Updated: 07/19/2018 7:53am
Overcast
Overcast
 Wind from SSW
Wind: SSW 6 mph , 9 km/h
Temperature: 55°F , 13°C
Dew Point: 52°F , 11°C
Humidity: 88%
Barometer: 30.18 inHg , 1022 hPa
Clouds: Overcast
Visibility: 10 miles , 16 km
Cloud details: Overcast 1200 ft
2018/07/19 14:53 KPAE 191453Z 20005KT 10SM OVC012 13/11 A3018 RMK AO2 SLP220 T01330111 53008
KBFI - Seattle/Boeing, Washington, USA
Distance from station: SW 20mi, 31km
Updated: 07/19/2018 7:53am
Overcast
Overcast
 Wind from S
Wind: S 8 mph , 13 km/h
Temperature: 59°F , 15°C
Dew Point: 50°F , 10°C
Humidity: 72%
Barometer: 30.18 inHg , 1022 hPa
Clouds: Overcast
Visibility: 10 miles , 16 km
Cloud details: Mostly cloudy 1900 ft
Overcast 2800 ft
2018/07/19 14:53 KBFI 191453Z 17007KT 10SM BKN019 OVC028 15/10 A3018 RMK AO2 SLP220 T01500100 53009
KSEA - Seattle/Metro, Washington, USA
Distance from station: SSW 25mi, 41km
Updated: 07/19/2018 7:53am
Overcast
Overcast
 Wind from S
Wind: S 7 mph , 11 km/h
Temperature: 57°F , 14°C
Dew Point: 50°F , 10°C
Humidity: 77%
Barometer: 30.19 inHg , 1022.4 hPa
Clouds: Overcast
Visibility: 10 miles , 16 km
Cloud details: Overcast 1500 ft
2018/07/19 14:53 KSEA 191453Z 19006KT 10SM OVC015 14/10 A3019 RMK AO2 SLP227 T01440100 53009
 
KAWO - Arlington Muni, Washington, USA
Distance from station: NNW 28mi, 46km
Updated: 07/19/2018 7:56am
Overcast
Overcast
 Wind from NW
Wind: NW 3 mph , 6 km/h
Temperature: 57°F , 14°C
Dew Point: 52°F , 11°C
Humidity: 82%
Barometer: 30.18 inHg , 1022 hPa
Clouds: Overcast
Visibility: 10 miles , 16 km
Cloud details: Overcast 1900 ft
2018/07/19 14:56 KAWO 191456Z AUTO 31003KT 10SM OVC019 14/11 A3018 RMK AO2 SLP224 T01440111 53007
KPWT - Bremerton Ntnl, Washington, USA
Distance from station: WSW 38mi, 61km
Updated: 07/19/2018 7:56am
Overcast
Overcast
 Wind from SW
Wind: SW 3 mph , 6 km/h
Temperature: 55°F , 13°C
Dew Point: 52°F , 11°C
Humidity: 88%
Barometer: 30.18 inHg , 1022 hPa
Clouds: Overcast
Visibility: 10 miles , 16 km
Cloud details: Overcast 800 ft
2018/07/19 14:56 KPWT 191456Z AUTO 22003KT 10SM OVC008 13/11 A3018 RMK AO2 SLP235 T01280111 53008
KTIW - Tacoma, Washington, USA
Distance from station: SW 43mi, 69km
Updated: 07/19/2018 7:53am
Overcast
Overcast
 Wind from S
Wind: S 6 mph , 9 km/h
Temperature: 55°F , 13°C
Dew Point: 50°F , 10°C
Humidity: 82%
Barometer: 30.19 inHg , 1022.4 hPa
Clouds: Overcast
Visibility: 10 miles , 16 km
Cloud details: Overcast 1500 ft
2018/07/19 14:53 KTIW 191453Z 17005KT 10SM OVC015 13/10 A3019 RMK AO2 SLP221 T01330100 53008
 
KPLU - Puyallup/Thun, Washington, USA
Distance from station: SSW 47mi, 76km
Updated: 07/19/2018 8:15am
Overcast
Overcast
 Wind from varies
Wind: varies 3 mph , 6 km/h
Temperature: 59°F , 15°C
Dew Point: 52°F , 11°C
Humidity: 77%
Barometer: 30.19 inHg , 1022.4 hPa
Clouds: Overcast
Visibility: 10 miles , 16 km
Cloud details: Overcast 1800 ft
2018/07/19 15:15 KPLU 191515Z AUTO VRB03KT 10SM OVC018 15/11 A3019 RMK AO2
KSMP - Stampede Pass, Washington, USA
Distance from station: SE 47mi, 76km
Updated: 07/19/2018 7:56am
Fog, Overcast
Fog, Overcast
 Wind from varies
Wind: varies 6 mph , 9 km/h
Temperature: 48°F , 9°C
Wind Chill: 45°F , 7°C
Dew Point: 48°F , 9°C
Humidity: 100%
Barometer: 30.16 inHg , 1021.3 hPa
Summary: Fog
Clouds: Overcast
Visibility: 1/4 mile , 0.4 km
Cloud details: Overcast 200 ft
2018/07/19 14:56 KSMP 191456Z AUTO VRB05KT 1/4SM FG VV002 09/09 A3016 RMK AO2 SLP200 T00940094 53001
KNUW - Whidbey Is. Nas, Washington, USA
Distance from station: NW 49mi, 79km
Updated: 07/19/2018 7:56am
Mostly cloudy
Mostly cloudy
 Wind from SW
Wind: SW 13 mph , 20 km/h
Temperature: 61°F , 16°C
Dew Point: 52°F , 11°C
Humidity: 72%
Barometer: 30.20 inHg , 1022.7 hPa
Clouds: Mostly cloudy
Visibility: 10 miles , 16 km
Cloud details: Mostly cloudy 2300 ft
Mostly cloudy 3200 ft
Mostly cloudy 25000 ft
2018/07/19 14:56 KNUW 191456Z 23011KT 10SM BKN023 BKN032 BKN250 16/11 A3020 RMK AO2 SLP226 T01560111 53007 $
 
KBVS - Burlington/Mt V, Washington, USA
Distance from station: NNW 51mi, 83km
Updated: 07/19/2018 8:15am
Haze, Overcast
Haze, Overcast
 Wind from SSW
Wind: SSW 5 mph , 7 km/h
Temperature: 57°F , 14°C
Dew Point: 54°F , 12°C
Humidity: 88%
Barometer: 30.18 inHg , 1022 hPa
Summary: Haze
Clouds: Overcast
Visibility: 3 miles , 5 km
Cloud details: Mostly cloudy 1600 ft
Overcast 2100 ft
2018/07/19 15:15 KBVS 191515Z AUTO 20004KT 3SM HZ BKN016 OVC021 14/12 A3018 RMK A01
KSHN - Shelton, Washington, USA
Distance from station: SW 63mi, 101km
Updated: 07/19/2018 8:20am
Mist, Overcast
Mist, Overcast
 Wind from SW
Wind: SW 6 mph , 9 km/h
Temperature: 55°F , 13°C
Dew Point: 54°F , 12°C
Humidity: 94%
Barometer: 30.16 inHg , 1021.3 hPa
Summary: Mist
Clouds: Overcast
Visibility: 2 1/2 miles , 4 km
Cloud details: Overcast 500 ft
2018/07/19 15:20 KSHN 191520Z AUTO 22005KT 2 1/2SM BR OVC005 13/12 A3016 RMK AO2 CIG 004V010 T01280117
KOLM - Olympia, Washington, USA
Distance from station: SW 68mi, 110km
Updated: 07/19/2018 7:54am
Mist, Overcast
Mist, Overcast
 Wind from SW
Wind: SW 5 mph , 7 km/h
Temperature: 55°F , 13°C
Dew Point: 52°F , 11°C
Humidity: 88%
Barometer: 30.18 inHg , 1022 hPa
Summary: Mist
Clouds: Overcast
Visibility: 4 miles , 6 km
Cloud details: Overcast 1400 ft
2018/07/19 14:54 KOLM 191454Z 22004KT 4SM BR OVC014 13/11 A3018 RMK AO2 SLP221 T01330111 53010
 
KCLM - Port Angeles, Washington, USA
Distance from station: WNW 72mi, 115km
Updated: 07/19/2018 7:53am
Partly cloudy
Partly cloudy
 Wind from NW
Wind: NW 5 mph , 7 km/h
Temperature: 55°F , 13°C
Dew Point: 52°F , 11°C
Humidity: 88%
Barometer: 30.17 inHg , 1021.7 hPa
Clouds: Partly cloudy
Visibility: 10 miles , 16 km
Cloud details: Partly cloudy 3300 ft
2018/07/19 14:53 KCLM 191453Z AUTO 31004KT 10SM SCT033 13/11 A3017 RMK AO2 SLP217 T01330106 53005
CWYJ - Victoria Univ, British Columbia, Canada
Distance from station: NW 75mi, 121km
Updated: 07/19/2018 8:00am

 Wind from W
Wind: W 3 mph , 6 km/h
Temperature: 61°F , 16°C
Dew Point: 52°F , 11°C
Humidity: 72%
2018/07/19 15:00 CWYJ 191500Z AUTO 26003KT 16/11 RMK AO1 SLP206 T01560111 53008
KBLI - Bellingham, Washington, USA
Distance from station: NNW 75mi, 121km
Updated: 07/19/2018 7:53am
Overcast
Overcast
 Wind from SSE
Wind: SSE 12 mph , 19 km/h
Temperature: 61°F , 16°C
Dew Point: 52°F , 11°C
Humidity: 72%
Barometer: 30.14 inHg , 1020.7 hPa
Clouds: Overcast
Visibility: 10 miles , 16 km
Cloud details: Mostly cloudy 3000 ft
Overcast 4300 ft
2018/07/19 14:53 KBLI 191453Z 16010KT 10SM BKN030 OVC043 16/11 A3014 RMK AO2 SLP212 T01560106 53008